createdAt,value
2022-12-07T00:01:58.474Z,6.95
2022-12-07T00:04:27.680Z,6.78
2022-12-07T00:06:57.668Z,7.30
2022-12-07T00:09:28.847Z,6.45
2022-12-07T00:12:00.581Z,6.27
2022-12-07T00:14:32.910Z,7.00
2022-12-07T00:17:02.198Z,6.70
2022-12-07T00:19:31.314Z,7.25
2022-12-07T00:22:00.758Z,5.65
2022-12-07T00:24:31.786Z,5.70
2022-12-07T00:27:01.275Z,7.32
2022-12-07T00:29:30.870Z,6.38
2022-12-07T00:32:00.231Z,7.30
2022-12-07T00:34:29.872Z,6.72
2022-12-07T00:36:59.202Z,5.85
2022-12-07T00:39:28.583Z,6.13
2022-12-07T00:41:59.030Z,6.30
2022-12-07T00:44:28.534Z,6.68
2022-12-07T00:46:57.985Z,7.45
2022-12-07T00:49:27.157Z,5.68
2022-12-07T00:51:56.436Z,6.30
2022-12-07T00:54:25.666Z,6.43
2022-12-07T00:56:55.156Z,5.32
2022-12-07T00:59:26.226Z,6.78
2022-12-07T01:01:55.559Z,5.50
2022-12-07T01:04:24.997Z,4.32
2022-12-07T01:06:54.580Z,5.80
2022-12-07T01:09:24.152Z,5.43
2022-12-07T01:11:55.293Z,5.90
2022-12-07T01:14:25.981Z,5.43
2022-12-07T01:16:55.051Z,6.38
2022-12-07T01:19:24.772Z,6.68
2022-12-07T01:21:55.794Z,6.38
2022-12-07T01:24:28.200Z,5.68
2022-12-07T01:27:04.970Z,6.05
2022-12-07T01:29:35.621Z,6.97
2022-12-07T01:32:05.014Z,6.20
2022-12-07T01:34:34.398Z,5.85
2022-12-07T01:37:03.342Z,6.50
2022-12-07T01:39:32.389Z,4.97
2022-12-07T01:42:01.355Z,5.45
2022-12-07T01:44:32.973Z,5.68
2022-12-07T01:47:04.108Z,5.32
2022-12-07T01:49:34.782Z,6.60
2022-12-07T01:52:07.337Z,5.43
2022-12-07T01:54:37.040Z,5.13
2022-12-07T01:57:07.275Z,5.97
2022-12-07T01:59:36.522Z,6.03
2022-12-07T02:02:10.642Z,6.50
2022-12-07T02:04:39.801Z,6.10
2022-12-07T02:07:10.377Z,5.70
2022-12-07T02:09:39.356Z,6.25
2022-12-07T02:12:08.427Z,6.78
2022-12-07T02:14:37.485Z,6.57
2022-12-07T02:17:10.672Z,6.07
2022-12-07T02:19:57.631Z,6.25
2022-12-07T02:22:34.533Z,5.80
2022-12-07T02:25:11.683Z,6.35
2022-12-07T02:27:42.734Z,7.00
2022-12-07T02:30:14.471Z,6.13
2022-12-07T02:32:46.608Z,6.80
2022-12-07T02:35:19.914Z,8.32
2022-12-07T02:37:56.456Z,6.82
2022-12-07T02:40:27.918Z,6.97
2022-12-07T02:43:00.726Z,6.70
2022-12-07T02:45:32.726Z,7.72
2022-12-07T02:48:03.228Z,6.63
2022-12-07T02:50:32.241Z,8.80
2022-12-07T02:53:01.443Z,7.20
2022-12-07T02:55:33.102Z,7.80
2022-12-07T02:58:09.130Z,7.40
2022-12-07T03:00:45.019Z,8.25
2022-12-07T03:03:16.211Z,6.72
2022-12-07T03:05:52.412Z,7.13
2022-12-07T03:08:24.723Z,7.65
2022-12-07T03:10:56.521Z,9.45
2022-12-07T03:13:28.329Z,9.23
2022-12-07T03:18:28.905Z,6.85
2022-12-07T03:20:59.779Z,7.00
2022-12-07T03:23:29.722Z,6.57
2022-12-07T03:26:01.132Z,6.70
2022-12-07T03:28:34.370Z,6.53
2022-12-07T03:31:06.439Z,5.80
2022-12-07T03:33:43.181Z,6.57
2022-12-07T03:36:15.190Z,6.20
2022-12-07T03:38:47.851Z,6.88
2022-12-07T03:41:19.329Z,7.15
2022-12-07T03:43:48.538Z,7.38
2022-12-07T03:46:20.915Z,5.72
2022-12-07T03:48:56.444Z,6.53
2022-12-07T03:51:28.176Z,6.72
2022-12-07T03:54:01.257Z,8.43
2022-12-07T03:56:31.800Z,6.85
2022-12-07T03:59:00.890Z,7.15
2022-12-07T04:01:30.486Z,6.30
2022-12-07T04:04:00.966Z,6.47
2022-12-07T04:06:30.149Z,6.85
2022-12-07T04:08:59.390Z,6.30
2022-12-07T04:11:28.499Z,7.47
2022-12-07T04:14:14.251Z,6.43
2022-12-07T04:16:44.808Z,7.28
2022-12-07T04:19:15.574Z,5.40
2022-12-07T04:21:44.741Z,6.57
2022-12-07T04:24:14.751Z,5.50
2022-12-07T04:26:44.022Z,7.43
2022-12-07T04:29:13.373Z,6.63
2022-12-07T04:31:45.028Z,7.05
2022-12-07T04:34:15.779Z,6.07
2022-12-07T04:36:45.370Z,5.63
2022-12-07T04:39:19.877Z,6.50
2022-12-07T04:41:49.060Z,6.10
2022-12-07T04:44:18.818Z,5.32
2022-12-07T04:46:47.942Z,5.82
2022-12-07T04:49:18.530Z,6.32
2022-12-07T04:51:47.998Z,5.68
2022-12-07T04:54:17.957Z,5.65
2022-12-07T04:56:49.049Z,5.90
2022-12-07T04:59:19.169Z,6.25
2022-12-07T05:01:48.551Z,6.80
2022-12-07T05:04:21.009Z,6.30
2022-12-07T05:06:50.206Z,5.68
2022-12-07T05:09:19.355Z,6.57
2022-12-07T05:11:48.383Z,6.03
2022-12-07T05:14:18.236Z,5.75
2022-12-07T05:16:48.503Z,5.60
2022-12-07T05:19:19.653Z,5.82
2022-12-07T05:21:48.776Z,5.82
2022-12-07T05:24:18.636Z,5.78
2022-12-07T05:26:47.764Z,6.80
2022-12-07T05:29:17.575Z,4.72
2022-12-07T05:31:47.514Z,4.93
2022-12-07T05:34:16.788Z,5.30
2022-12-07T05:36:47.191Z,5.63
2022-12-07T05:39:16.697Z,5.20
2022-12-07T05:42:03.626Z,4.00
2022-12-07T05:44:32.773Z,4.43
2022-12-07T05:47:01.895Z,4.30
2022-12-07T05:49:33.854Z,4.90
2022-12-07T05:54:33.172Z,5.25
2022-12-07T05:57:04.416Z,4.50
2022-12-07T05:59:32.906Z,5.75
2022-12-07T06:02:04.247Z,5.00
2022-12-07T06:04:34.525Z,5.32
2022-12-07T06:07:03.918Z,4.97
2022-12-07T06:09:34.719Z,5.38
2022-12-07T06:12:21.430Z,5.47
2022-12-07T06:14:50.564Z,5.65
2022-12-07T06:17:19.880Z,5.82
2022-12-07T06:19:49.085Z,5.35
2022-12-07T06:22:18.518Z,4.57
2022-12-07T06:24:48.952Z,3.83
2022-12-07T06:27:18.357Z,5.13
2022-12-07T06:29:47.807Z,5.15
2022-12-07T06:32:17.023Z,5.35
2022-12-07T06:34:48.389Z,5.28
2022-12-07T06:37:17.811Z,5.28
2022-12-07T06:39:47.306Z,5.80
2022-12-07T06:42:18.296Z,5.20
2022-12-07T06:44:47.954Z,6.32
2022-12-07T06:50:08.668Z,5.82
2022-12-07T06:52:40.369Z,5.63
2022-12-07T06:55:09.916Z,5.00
2022-12-07T06:57:40.560Z,6.57
2022-12-07T07:00:10.501Z,6.60
2022-12-07T07:02:39.849Z,5.43
2022-12-07T07:05:09.393Z,5.72
2022-12-07T07:07:58.175Z,6.38
2022-12-07T07:10:30.309Z,5.88
2022-12-07T07:13:01.083Z,6.70
2022-12-07T07:15:31.662Z,6.10
2022-12-07T07:18:07.438Z,6.07
2022-12-07T07:20:37.462Z,5.53
2022-12-07T07:23:07.304Z,6.13
2022-12-07T07:25:36.989Z,5.03
2022-12-07T07:28:09.854Z,5.53
2022-12-07T07:30:39.270Z,5.95
2022-12-07T07:33:08.756Z,6.07
2022-12-07T07:35:37.907Z,6.35
2022-12-07T07:38:07.184Z,7.05
2022-12-07T07:40:37.505Z,5.50
2022-12-07T07:43:13.468Z,5.43
2022-12-07T07:45:45.319Z,6.03
2022-12-07T07:48:16.742Z,6.03
2022-12-07T07:50:45.862Z,7.28
2022-12-07T07:53:16.423Z,5.97
2022-12-07T07:55:52.879Z,6.65
2022-12-07T07:58:26.973Z,6.80
2022-12-07T08:00:59.942Z,7.03
2022-12-07T08:03:32.631Z,5.80
2022-12-07T08:06:02.507Z,6.10
2022-12-07T08:08:41.333Z,5.80
2022-12-07T08:11:11.459Z,5.60
2022-12-07T08:13:42.169Z,6.22
2022-12-07T08:16:12.964Z,6.50
2022-12-07T08:18:43.359Z,5.70
2022-12-07T08:21:15.009Z,6.50
2022-12-07T08:23:44.816Z,5.57
2022-12-07T08:26:15.906Z,4.78
2022-12-07T08:28:47.257Z,4.60
2022-12-07T08:31:17.663Z,4.82
2022-12-07T08:33:50.449Z,4.05
2022-12-07T08:36:19.868Z,8.30
2022-12-07T08:39:29.144Z,5.03
2022-12-07T08:41:40.428Z,5.28
2022-12-07T08:44:16.474Z,5.43
2022-12-07T08:46:49.097Z,5.13
2022-12-07T08:49:19.543Z,5.35
2022-12-07T08:51:54.104Z,5.80
2022-12-07T08:54:23.584Z,5.65
2022-12-07T08:56:59.062Z,5.95
2022-12-07T08:59:31.563Z,5.60
2022-12-07T09:02:01.656Z,5.97
2022-12-07T09:04:34.717Z,6.88
2022-12-07T09:07:05.604Z,6.05
2022-12-07T09:09:36.423Z,5.10
2022-12-07T09:12:06.131Z,4.53
2022-12-07T09:14:38.302Z,5.13
2022-12-07T09:17:12.944Z,4.20
2022-12-07T09:19:43.687Z,4.85
2022-12-07T09:22:13.406Z,4.23
2022-12-07T09:24:43.022Z,3.80
2022-12-07T09:27:15.276Z,5.38
2022-12-07T09:29:48.902Z,5.13
2022-12-07T09:32:18.942Z,4.90
2022-12-07T09:34:49.131Z,5.30
2022-12-07T09:37:18.446Z,5.18
2022-12-07T09:39:50.269Z,5.30
2022-12-07T09:42:29.148Z,4.47
2022-12-07T09:45:06.819Z,4.00
2022-12-07T09:47:38.680Z,4.03
2022-12-07T09:50:18.401Z,4.05
2022-12-07T09:52:49.029Z,4.95
2022-12-07T09:55:21.375Z,3.75
2022-12-07T09:57:52.659Z,4.05
2022-12-07T10:00:24.132Z,5.13
2022-12-07T10:03:01.104Z,4.88
2022-12-07T10:05:33.106Z,4.95
2022-12-07T10:08:02.507Z,4.45
2022-12-07T10:10:38.049Z,5.00
2022-12-07T10:13:09.066Z,5.00
2022-12-07T10:15:50.875Z,4.63
2022-12-07T10:19:01.199Z,5.55
2022-12-07T10:21:36.125Z,5.32
2022-12-07T10:24:28.573Z,5.00
2022-12-07T10:27:45.009Z,5.70
2022-12-07T10:30:17.213Z,4.97
2022-12-07T10:32:48.162Z,7.25
2022-12-07T10:35:25.645Z,5.95
2022-12-07T10:37:55.948Z,4.53
2022-12-07T10:40:29.803Z,4.20
2022-12-07T10:43:09.216Z,4.65
2022-12-07T10:46:02.621Z,4.93
2022-12-07T10:48:41.564Z,4.65
2022-12-07T10:51:15.011Z,4.55
2022-12-07T10:53:51.253Z,5.45
2022-12-07T10:56:32.163Z,4.40
2022-12-07T10:59:07.191Z,5.53
2022-12-07T11:01:44.735Z,5.25
2022-12-07T11:04:23.344Z,3.90
2022-12-07T11:06:57.524Z,4.45
2022-12-07T11:10:07.804Z,4.00
2022-12-07T11:12:44.333Z,3.97
2022-12-07T11:15:18.526Z,5.20
2022-12-07T11:17:51.282Z,5.25
2022-12-07T11:20:32.470Z,5.10
2022-12-07T11:23:06.240Z,4.47
2022-12-07T11:25:38.628Z,4.30
2022-12-07T11:28:19.767Z,5.40
2022-12-07T11:30:53.670Z,3.97
2022-12-07T11:33:25.024Z,3.95
2022-12-07T11:36:01.701Z,4.57
2022-12-07T11:38:34.613Z,4.53
2022-12-07T11:41:14.089Z,4.30
2022-12-07T11:43:55.706Z,3.92
2022-12-07T11:46:27.933Z,4.28
2022-12-07T11:49:01.524Z,3.58
2022-12-07T11:51:36.330Z,4.40
2022-12-07T11:54:10.224Z,7.50
2022-12-07T11:56:39.876Z,5.47
2022-12-07T11:59:15.778Z,5.20
2022-12-07T12:01:51.187Z,5.25
2022-12-07T12:04:27.064Z,3.70
2022-12-07T12:06:58.196Z,4.60
2022-12-07T12:15:10.042Z,4.43
2022-12-07T12:17:50.398Z,4.70
2022-12-07T12:20:23.588Z,4.63
2022-12-07T12:22:56.752Z,4.22
2022-12-07T12:25:30.264Z,4.10
2022-12-07T12:28:01.569Z,5.13
2022-12-07T12:30:36.570Z,4.30
2022-12-07T12:33:16.008Z,4.45
2022-12-07T12:35:48.477Z,4.38
2022-12-07T12:38:32.164Z,4.13
2022-12-07T12:41:01.436Z,4.88
2022-12-07T12:43:57.109Z,6.13
2022-12-07T12:46:51.307Z,3.90
2022-12-07T12:49:45.841Z,4.63
2022-12-07T12:52:35.223Z,4.45
2022-12-07T12:55:20.140Z,4.68
2022-12-07T12:57:55.898Z,4.85
2022-12-07T13:00:29.894Z,5.07
2022-12-07T13:03:01.905Z,5.15
2022-12-07T13:08:05.377Z,4.38
2022-12-07T13:10:41.141Z,4.90
2022-12-07T13:13:29.075Z,4.38
2022-12-07T13:16:18.456Z,5.38
2022-12-07T13:18:47.863Z,5.72
2022-12-07T13:21:32.366Z,5.20
2022-12-07T13:24:02.187Z,6.25
2022-12-07T13:26:39.815Z,5.88
2022-12-07T13:29:13.394Z,7.25
2022-12-07T13:31:43.558Z,5.50
2022-12-07T13:34:31.806Z,5.15
2022-12-07T13:37:02.579Z,4.47
2022-12-07T13:39:32.080Z,6.60
2022-12-07T13:42:18.449Z,5.03
2022-12-07T13:44:47.894Z,4.68
2022-12-07T13:47:20.318Z,5.22
2022-12-07T13:49:53.733Z,5.20
2022-12-07T13:52:25.156Z,5.22
2022-12-07T13:55:01.781Z,5.95
2022-12-07T13:57:34.920Z,6.35
2022-12-07T14:00:19.955Z,5.55
2022-12-07T14:02:58.402Z,5.45
2022-12-07T14:05:28.753Z,5.18
2022-12-07T14:08:00.472Z,4.18
2022-12-07T14:10:31.737Z,4.68
2022-12-07T14:13:03.348Z,3.92
2022-12-07T14:15:34.065Z,4.82
2022-12-07T14:18:06.694Z,5.13
2022-12-07T14:20:38.523Z,4.30
2022-12-07T14:23:11.310Z,4.32
2022-12-07T14:25:51.570Z,5.05
2022-12-07T14:28:30.447Z,4.85
2022-12-07T14:30:59.493Z,3.72
2022-12-07T14:33:29.231Z,3.83
2022-12-07T14:35:59.452Z,3.83
2022-12-07T14:38:32.806Z,3.17
2022-12-07T14:41:15.928Z,3.42
2022-12-07T14:44:07.262Z,4.63
2022-12-07T14:46:36.432Z,4.03
2022-12-07T14:54:45.189Z,3.47
2022-12-07T14:57:14.331Z,4.85
2022-12-07T14:59:45.530Z,6.47
2022-12-07T15:02:15.520Z,5.82
2022-12-07T15:04:44.753Z,5.72
2022-12-07T15:07:18.129Z,8.20
2022-12-07T15:09:47.589Z,5.32
2022-12-07T15:12:17.859Z,5.28
2022-12-07T15:14:48.745Z,4.68
2022-12-07T15:17:29.584Z,5.60
2022-12-07T15:20:01.012Z,4.85
2022-12-07T15:22:36.603Z,9.07
2022-12-07T15:25:07.815Z,5.53
2022-12-07T15:27:37.210Z,5.00
2022-12-07T15:30:08.665Z,5.00
2022-12-07T15:32:37.709Z,7.18
2022-12-07T15:35:07.216Z,5.28
2022-12-07T15:37:36.552Z,4.80
2022-12-07T15:40:07.983Z,4.18
2022-12-07T15:42:39.747Z,4.30
2022-12-07T15:45:10.348Z,6.75
2022-12-07T15:48:10.370Z,4.63
2022-12-07T15:50:29.995Z,5.70
2022-12-07T15:52:59.189Z,4.50
2022-12-07T15:55:28.562Z,4.70
2022-12-07T15:57:59.263Z,4.32
2022-12-07T16:00:36.269Z,4.57
2022-12-07T16:03:06.083Z,5.05
2022-12-07T16:05:35.860Z,4.93
2022-12-07T16:08:05.689Z,5.50
2022-12-07T16:10:35.157Z,5.32
2022-12-07T16:13:04.371Z,4.32
2022-12-07T16:15:34.877Z,5.43
2022-12-07T16:18:04.402Z,4.80
2022-12-07T16:20:33.646Z,5.32
2022-12-07T16:23:03.084Z,5.32
2022-12-07T16:25:32.622Z,5.20
2022-12-07T16:28:02.015Z,6.22
2022-12-07T16:30:32.822Z,5.00
2022-12-07T16:33:03.433Z,5.20
2022-12-07T16:35:37.807Z,5.00
2022-12-07T16:38:07.002Z,5.15
2022-12-07T16:40:38.029Z,6.18
2022-12-07T16:43:07.759Z,4.57
2022-12-07T16:45:40.213Z,5.30
2022-12-07T16:48:10.873Z,5.07
2022-12-07T16:50:46.661Z,5.95
2022-12-07T16:53:19.302Z,5.22
2022-12-07T16:55:49.313Z,5.30
2022-12-07T16:58:20.494Z,5.43
2022-12-07T17:00:49.841Z,5.72
2022-12-07T17:03:21.209Z,5.85
2022-12-07T17:05:51.234Z,13.13
2022-12-07T17:08:20.900Z,10.73
2022-12-07T17:10:51.494Z,7.57
2022-12-07T17:13:39.793Z,8.00
2022-12-07T17:16:09.691Z,11.10
2022-12-07T17:18:44.442Z,12.88
2022-12-07T17:21:14.001Z,9.70
2022-12-07T17:23:43.437Z,7.22
2022-12-07T17:26:15.888Z,7.13
2022-12-07T17:28:47.801Z,6.82
2022-12-07T17:31:19.733Z,6.35
2022-12-07T17:33:50.343Z,6.25
2022-12-07T17:36:21.316Z,6.47
2022-12-07T17:38:51.878Z,7.17
2022-12-07T17:41:37.619Z,7.75
2022-12-07T17:44:08.453Z,8.50
2022-12-07T17:46:38.739Z,7.87
2022-12-07T17:49:10.138Z,10.13
2022-12-07T17:51:57.070Z,11.20
2022-12-07T17:54:29.397Z,8.73
2022-12-07T17:56:59.637Z,9.60
2022-12-07T17:59:34.219Z,8.05
2022-12-07T18:02:03.842Z,9.55
2022-12-07T18:04:36.684Z,8.77
2022-12-07T18:07:07.029Z,10.18
2022-12-07T18:09:36.724Z,10.30
2022-12-07T18:12:06.509Z,10.98
2022-12-07T18:14:38.360Z,11.40
2022-12-07T18:17:08.073Z,10.88
2022-12-07T18:19:39.257Z,10.15
2022-12-07T18:22:08.476Z,9.90
2022-12-07T18:24:38.437Z,10.30
2022-12-07T18:27:08.749Z,9.95
2022-12-07T18:29:38.180Z,9.52
2022-12-07T18:32:07.961Z,9.68
2022-12-07T18:34:37.190Z,9.38
2022-12-07T18:37:09.839Z,8.73
2022-12-07T18:39:38.880Z,11.38
2022-12-07T18:42:17.263Z,9.07
2022-12-07T18:44:47.374Z,9.80
2022-12-07T18:47:17.032Z,9.57
2022-12-07T18:49:46.223Z,8.95
2022-12-07T18:52:17.028Z,9.93
2022-12-07T18:54:46.271Z,9.73
2022-12-07T18:57:16.255Z,11.40
2022-12-07T18:59:50.918Z,8.18
2022-12-07T19:02:21.739Z,8.57
2022-12-07T19:04:55.469Z,8.85
2022-12-07T19:07:26.747Z,8.20
2022-12-07T19:09:56.157Z,7.80
2022-12-07T19:12:25.749Z,8.55
2022-12-07T19:14:55.838Z,8.48
2022-12-07T19:17:25.275Z,8.23
2022-12-07T19:19:54.666Z,8.13
2022-12-07T19:22:24.906Z,7.45
2022-12-07T19:24:56.553Z,8.77
2022-12-07T19:27:29.173Z,8.88
2022-12-07T19:29:59.112Z,10.40
2022-12-07T19:32:30.432Z,9.10
2022-12-07T19:35:01.335Z,10.90
2022-12-07T19:37:31.242Z,8.70
2022-12-07T19:40:01.959Z,10.05
2022-12-07T19:42:35.364Z,10.05
2022-12-07T19:45:05.998Z,8.57
2022-12-07T19:47:38.938Z,7.13
2022-12-07T19:50:09.811Z,8.65
2022-12-07T19:52:39.390Z,8.68
2022-12-07T19:55:10.714Z,9.27
2022-12-07T19:57:40.001Z,9.73
2022-12-07T20:00:10.028Z,9.95
2022-12-07T20:02:40.494Z,9.38
2022-12-07T20:05:12.085Z,9.80
2022-12-07T20:07:42.895Z,9.45
2022-12-07T20:10:26.160Z,10.65
2022-12-07T20:13:09.680Z,8.90
2022-12-07T20:15:39.713Z,16.73
2022-12-07T20:18:12.225Z,14.15
2022-12-07T20:20:55.831Z,12.98
2022-12-07T20:23:25.770Z,26.58
2022-12-07T20:25:57.176Z,14.73
2022-12-07T20:28:30.058Z,11.23
2022-12-07T20:30:59.830Z,10.68
2022-12-07T20:33:30.313Z,10.85
2022-12-07T20:36:02.724Z,10.50
2022-12-07T20:38:33.240Z,11.48
2022-12-07T20:41:05.697Z,10.20
2022-12-07T20:43:34.430Z,11.52
2022-12-07T20:46:03.768Z,12.38
2022-12-07T20:48:32.857Z,11.38
2022-12-07T20:51:08.214Z,10.90
2022-12-07T20:53:40.321Z,10.90
2022-12-07T20:56:20.473Z,11.07
2022-12-07T20:58:53.541Z,12.40
2022-12-07T21:01:23.229Z,9.98
2022-12-07T21:03:58.480Z,12.70
2022-12-07T21:06:27.888Z,12.43
2022-12-07T21:09:00.839Z,11.52
2022-12-07T21:11:35.189Z,13.30
2022-12-07T21:14:04.786Z,12.85
2022-12-07T21:16:34.368Z,12.35
2022-12-07T21:19:04.524Z,12.63
2022-12-07T21:21:36.813Z,12.60
2022-12-07T21:24:08.237Z,12.98
2022-12-07T21:26:40.595Z,12.57
2022-12-07T21:29:25.836Z,11.80
2022-12-07T21:32:09.601Z,13.02
2022-12-07T21:34:38.881Z,11.18
2022-12-07T21:37:07.961Z,12.18
2022-12-07T21:39:37.352Z,12.52
2022-12-07T21:42:08.947Z,12.48
2022-12-07T21:44:38.321Z,11.88
2022-12-07T21:47:10.470Z,12.43
2022-12-07T21:49:40.298Z,12.27
2022-12-07T21:52:09.772Z,14.05
2022-12-07T21:54:40.817Z,13.02
2022-12-07T21:57:18.615Z,14.30
2022-12-07T21:59:53.852Z,19.65
2022-12-07T22:02:27.006Z,16.95
2022-12-07T22:04:58.896Z,15.50
2022-12-07T22:07:31.869Z,15.05
2022-12-07T22:10:05.764Z,16.35
2022-12-07T22:12:44.301Z,15.40
2022-12-07T22:15:19.659Z,15.02
2022-12-07T22:17:53.937Z,17.17
2022-12-07T22:20:26.356Z,14.25
2022-12-07T22:22:59.840Z,14.38
2022-12-07T22:25:35.556Z,14.73
2022-12-07T22:28:13.709Z,15.13
2022-12-07T22:30:47.087Z,15.43
2022-12-07T22:33:23.604Z,14.20
2022-12-07T22:35:59.594Z,13.50
2022-12-07T22:38:31.246Z,13.98
2022-12-07T22:43:41.787Z,13.82
2022-12-07T22:46:13.885Z,13.07
2022-12-07T22:48:44.028Z,12.70
2022-12-07T22:51:22.108Z,14.82
2022-12-07T22:53:57.777Z,12.85
2022-12-07T22:56:29.039Z,15.25
2022-12-07T22:59:08.697Z,11.50
2022-12-07T23:01:38.392Z,14.98
2022-12-07T23:04:11.073Z,13.30
2022-12-07T23:06:50.012Z,12.25
2022-12-07T23:09:24.806Z,15.05
2022-12-07T23:12:17.606Z,14.25
2022-12-07T23:15:03.850Z,14.20
2022-12-07T23:17:38.393Z,13.90
2022-12-07T23:20:18.294Z,12.52
2022-12-07T23:22:49.981Z,13.05
2022-12-07T23:25:24.223Z,12.80
2022-12-07T23:27:58.818Z,13.73
2022-12-07T23:30:37.042Z,13.55
2022-12-07T23:33:11.868Z,14.25
2022-12-07T23:35:41.594Z,14.32
2022-12-07T23:38:18.122Z,12.95
2022-12-07T23:40:55.541Z,13.93
2022-12-07T23:43:28.228Z,14.95
2022-12-07T23:46:00.094Z,12.82
2022-12-07T23:51:04.740Z,13.95
2022-12-07T23:53:35.267Z,12.95
2022-12-07T23:56:07.301Z,13.73
2022-12-07T23:58:38.233Z,12.82
